createdAt,value
2022-09-23T00:00:56.198Z,962.92
2022-09-23T00:01:56.175Z,962.94
2022-09-23T00:02:56.170Z,962.92
2022-09-23T00:03:56.178Z,962.95
2022-09-23T00:04:56.170Z,962.93
2022-09-23T00:05:56.128Z,962.92
2022-09-23T00:06:56.140Z,962.94
2022-09-23T00:08:56.145Z,962.99
2022-09-23T00:09:56.128Z,962.95
2022-09-23T00:10:56.155Z,962.97
2022-09-23T00:11:56.144Z,962.91
2022-09-23T00:13:56.257Z,962.89
2022-09-23T00:14:56.160Z,962.92
2022-09-23T00:16:56.243Z,962.94
2022-09-23T00:17:56.166Z,962.9
2022-09-23T00:18:56.173Z,962.91
2022-09-23T00:19:56.159Z,962.94
2022-09-23T00:20:56.170Z,962.93
2022-09-23T00:21:56.169Z,962.91
2022-09-23T00:22:56.171Z,962.94
2022-09-23T00:23:56.171Z,962.91
2022-09-23T00:24:56.183Z,962.95
2022-09-23T00:26:56.246Z,962.96
2022-09-23T00:27:56.186Z,962.93
2022-09-23T00:30:56.355Z,962.97
2022-09-23T00:31:56.190Z,962.95
2022-09-23T00:32:56.357Z,962.97
2022-09-23T00:33:56.189Z,962.99
2022-09-23T00:34:56.286Z,962.97
2022-09-23T00:35:56.209Z,962.96
2022-09-23T00:36:56.213Z,962.98
2022-09-23T00:37:56.286Z,962.97
2022-09-23T00:38:56.221Z,962.98
2022-09-23T00:39:56.217Z,963
2022-09-23T00:40:56.210Z,962.99
2022-09-23T00:42:56.231Z,962.96
2022-09-23T00:43:56.216Z,962.93
2022-09-23T00:44:57.420Z,962.92
2022-09-23T00:46:56.303Z,962.93
2022-09-23T00:47:56.226Z,962.92
2022-09-23T00:48:56.343Z,962.9
2022-09-23T00:49:56.245Z,962.89
2022-09-23T00:51:56.242Z,962.88
2022-09-23T00:52:56.246Z,962.86
2022-09-23T00:53:56.250Z,962.84
2022-09-23T00:54:56.355Z,962.87
2022-09-23T00:55:56.240Z,962.83
2022-09-23T00:56:56.244Z,962.86
2022-09-23T00:57:56.354Z,962.83
2022-09-23T00:58:56.330Z,962.84
2022-09-23T01:00:56.296Z,962.8
2022-09-23T01:01:56.385Z,962.78
2022-09-23T01:02:56.308Z,962.75
2022-09-23T01:03:56.250Z,962.78
2022-09-23T01:05:56.323Z,962.74
2022-09-23T01:08:56.263Z,962.73
2022-09-23T01:09:56.280Z,962.72
2022-09-23T01:10:56.273Z,962.7
2022-09-23T01:11:56.302Z,962.69
2022-09-23T01:12:56.275Z,962.68
2022-09-23T01:13:56.294Z,962.69
2022-09-23T01:14:56.286Z,962.72
2022-09-23T01:15:56.290Z,962.65
2022-09-23T01:16:56.346Z,962.71
2022-09-23T01:17:56.294Z,962.69
2022-09-23T01:18:56.293Z,962.7
2022-09-23T01:19:56.295Z,962.69
2022-09-23T01:20:56.316Z,962.7
2022-09-23T01:21:56.298Z,962.69
2022-09-23T01:22:56.371Z,962.7
2022-09-23T01:24:56.312Z,962.66
2022-09-23T01:25:56.467Z,962.65
2022-09-23T01:26:56.438Z,962.67
2022-09-23T01:27:56.338Z,962.65
2022-09-23T01:29:56.332Z,962.67
2022-09-23T01:31:56.340Z,962.68
2022-09-23T01:32:56.332Z,962.7
2022-09-23T01:33:56.406Z,962.67
2022-09-23T01:35:56.456Z,962.68
2022-09-23T01:36:56.346Z,962.67
2022-09-23T01:37:57.679Z,962.72
2022-09-23T01:38:56.444Z,962.71
2022-09-23T01:40:56.346Z,962.75
2022-09-23T01:41:56.461Z,962.77
2022-09-23T01:42:56.343Z,962.75
2022-09-23T01:43:56.362Z,962.71
2022-09-23T01:45:56.429Z,962.69
2022-09-23T01:47:56.493Z,962.71
2022-09-23T01:48:56.365Z,962.68
2022-09-23T01:49:56.365Z,962.7
2022-09-23T01:50:56.369Z,962.68
2022-09-23T01:51:56.380Z,962.69
2022-09-23T01:52:56.379Z,962.63
2022-09-23T01:53:56.381Z,962.66
2022-09-23T01:54:56.532Z,962.64
2022-09-23T01:55:56.607Z,962.66
2022-09-23T01:56:56.471Z,962.61
2022-09-23T01:57:56.543Z,962.63
2022-09-23T01:58:56.511Z,962.61
2022-09-23T02:01:56.546Z,962.62
2022-09-23T02:02:56.471Z,962.63
2022-09-23T02:03:56.404Z,962.59
2022-09-23T02:05:56.485Z,962.61
2022-09-23T02:06:56.413Z,962.59
2022-09-23T02:10:56.528Z,962.58
2022-09-23T02:12:56.566Z,962.57
2022-09-23T02:13:56.522Z,962.56
2022-09-23T02:14:56.441Z,962.61
2022-09-23T02:16:56.484Z,962.59
2022-09-23T02:18:56.561Z,962.61
2022-09-23T02:19:56.437Z,962.62
2022-09-23T02:20:56.441Z,962.64
2022-09-23T02:21:56.561Z,962.63
2022-09-23T02:22:56.538Z,962.64
2022-09-23T02:23:56.601Z,962.62
2022-09-23T02:24:56.577Z,962.59
2022-09-23T02:26:56.460Z,962.6
2022-09-23T02:27:56.575Z,962.58
2022-09-23T02:29:56.616Z,962.6
2022-09-23T02:30:56.482Z,962.61
2022-09-23T02:31:56.520Z,962.57
2022-09-23T02:32:56.476Z,962.59
2022-09-23T02:33:56.474Z,962.62
2022-09-23T02:34:56.489Z,962.59
2022-09-23T02:35:56.498Z,962.63
2022-09-23T02:36:56.487Z,962.6
2022-09-23T02:37:56.476Z,962.62
2022-09-23T02:39:56.598Z,962.61
2022-09-23T02:40:56.557Z,962.59
2022-09-23T02:41:56.545Z,962.62
2022-09-23T02:42:56.598Z,962.6
2022-09-23T02:43:56.503Z,962.63
2022-09-23T02:44:56.500Z,962.58
2022-09-23T02:45:56.576Z,962.54
2022-09-23T02:46:56.584Z,962.59
2022-09-23T02:47:56.509Z,962.55
2022-09-23T02:48:56.524Z,962.56
2022-09-23T02:49:56.516Z,962.54
2022-09-23T02:50:56.535Z,962.55
2022-09-23T02:51:56.508Z,962.53
2022-09-23T02:53:56.644Z,962.52
2022-09-23T02:54:56.614Z,962.54
2022-09-23T02:55:56.529Z,962.55
2022-09-23T02:56:56.522Z,962.53
2022-09-23T02:57:56.533Z,962.49
2022-09-23T02:58:56.526Z,962.55
2022-09-23T02:59:56.651Z,962.53
2022-09-23T03:00:56.595Z,962.52
2022-09-23T03:02:56.536Z,962.49
2022-09-23T03:03:56.543Z,962.48
2022-09-23T03:04:56.548Z,962.47
2022-09-23T03:05:56.666Z,962.51
2022-09-23T03:06:56.624Z,962.5
2022-09-23T03:07:56.706Z,962.47
2022-09-23T03:08:56.666Z,962.49
2022-09-23T03:09:56.554Z,962.52
2022-09-23T03:11:56.669Z,962.46
2022-09-23T03:12:56.565Z,962.5
2022-09-23T03:13:56.576Z,962.48
2022-09-23T03:14:56.574Z,962.49
2022-09-23T03:15:56.570Z,962.48
2022-09-23T03:16:56.710Z,962.51
2022-09-23T03:17:56.685Z,962.49
2022-09-23T03:18:56.646Z,962.54
2022-09-23T03:19:56.720Z,962.49
2022-09-23T03:20:56.673Z,962.5
2022-09-23T03:22:56.590Z,962.48
2022-09-23T03:23:56.688Z,962.49
2022-09-23T03:24:56.752Z,962.53
2022-09-23T03:25:56.726Z,962.48
2022-09-23T03:26:56.692Z,962.49
2022-09-23T03:27:56.754Z,962.5
2022-09-23T03:28:56.726Z,962.49
2022-09-23T03:29:56.685Z,962.5
2022-09-23T03:30:56.767Z,962.47
2022-09-23T03:31:56.673Z,962.46
2022-09-23T03:35:56.701Z,962.49
2022-09-23T03:36:56.614Z,962.46
2022-09-23T03:37:56.736Z,962.49
2022-09-23T03:38:56.704Z,962.48
2022-09-23T03:40:56.670Z,962.5
2022-09-23T03:41:56.625Z,962.53
2022-09-23T03:43:56.643Z,962.54
2022-09-23T03:44:56.713Z,962.55
2022-09-23T03:45:56.813Z,962.56
2022-09-23T03:46:56.750Z,962.59
2022-09-23T03:47:56.758Z,962.56
2022-09-23T03:48:56.793Z,962.59
2022-09-23T03:49:56.653Z,962.57
2022-09-23T03:52:56.750Z,962.53
2022-09-23T03:53:56.731Z,962.51
2022-09-23T03:54:56.797Z,962.52
2022-09-23T03:55:56.761Z,962.5
2022-09-23T03:57:56.672Z,962.53
2022-09-23T03:58:56.771Z,962.54
2022-09-23T03:59:56.835Z,962.5
2022-09-23T04:00:56.720Z,962.51
2022-09-23T04:01:56.816Z,962.47
2022-09-23T04:02:56.835Z,962.51
2022-09-23T04:03:56.691Z,962.53
2022-09-23T04:04:56.787Z,962.51
2022-09-23T04:05:56.843Z,962.49
2022-09-23T04:08:56.704Z,962.51
2022-09-23T04:09:56.812Z,962.49
2022-09-23T04:10:56.700Z,962.47
2022-09-23T04:11:56.706Z,962.52
2022-09-23T04:12:56.817Z,962.49
2022-09-23T04:13:56.706Z,962.54
2022-09-23T04:14:56.849Z,962.52
2022-09-23T04:15:56.753Z,962.51
2022-09-23T04:16:56.717Z,962.54
2022-09-23T04:17:56.715Z,962.51
2022-09-23T04:19:56.799Z,962.5
2022-09-23T04:20:56.725Z,962.48
2022-09-23T04:22:56.724Z,962.45
2022-09-23T04:23:56.726Z,962.49
2022-09-23T04:24:56.740Z,962.43
2022-09-23T04:25:56.737Z,962.41
2022-09-23T04:26:56.752Z,962.39
2022-09-23T04:27:56.749Z,962.42
2022-09-23T04:28:56.744Z,962.45
2022-09-23T04:29:56.742Z,962.46
2022-09-23T04:30:56.772Z,962.43
2022-09-23T04:31:56.789Z,962.48
2022-09-23T04:32:56.745Z,962.42
2022-09-23T04:33:56.748Z,962.45
2022-09-23T04:34:56.759Z,962.42
2022-09-23T04:35:56.761Z,962.45
2022-09-23T04:36:56.864Z,962.32
2022-09-23T04:37:56.762Z,962.42
2022-09-23T04:40:56.829Z,962.44
2022-09-23T04:42:56.856Z,962.42
2022-09-23T04:43:56.926Z,962.43
2022-09-23T04:44:56.894Z,962.41
2022-09-23T04:45:56.860Z,962.46
2022-09-23T04:46:56.978Z,962.44
2022-09-23T04:47:56.795Z,962.43
2022-09-23T04:48:56.858Z,962.44
2022-09-23T04:49:59.785Z,962.45
2022-09-23T04:50:56.797Z,962.41
2022-09-23T04:52:56.943Z,962.42
2022-09-23T04:53:56.907Z,962.4
2022-09-23T04:54:56.810Z,962.47
2022-09-23T04:55:56.808Z,962.43
2022-09-23T04:58:56.935Z,962.44
2022-09-23T04:59:56.941Z,962.45
2022-09-23T05:00:58.567Z,962.46
2022-09-23T05:01:56.848Z,962.49
2022-09-23T05:02:56.829Z,962.47
2022-09-23T05:03:56.986Z,962.49
2022-09-23T05:04:56.954Z,962.47
2022-09-23T05:05:56.917Z,962.5
2022-09-23T05:07:00.799Z,962.51
2022-09-23T05:07:56.847Z,962.53
2022-09-23T05:08:56.920Z,962.52
2022-09-23T05:09:56.841Z,962.53
2022-09-23T05:11:56.848Z,962.52
2022-09-23T05:12:57.446Z,962.48
2022-09-23T05:13:56.962Z,962.5
2022-09-23T05:15:57.049Z,962.53
2022-09-23T05:16:56.866Z,962.49
2022-09-23T05:19:56.972Z,962.51
2022-09-23T05:20:56.936Z,962.54
2022-09-23T05:21:56.908Z,962.57
2022-09-23T05:22:56.865Z,962.56
2022-09-23T05:23:56.874Z,962.58
2022-09-23T05:24:56.920Z,962.57
2022-09-23T05:25:56.988Z,962.58
2022-09-23T05:26:56.884Z,962.54
2022-09-23T05:27:56.918Z,962.58
2022-09-23T05:28:56.984Z,962.6
2022-09-23T05:29:56.964Z,962.57
2022-09-23T05:30:57.057Z,962.61
2022-09-23T05:31:57.023Z,962.58
2022-09-23T05:32:57.061Z,962.62
2022-09-23T05:33:56.900Z,962.61
2022-09-23T05:35:56.912Z,962.65
2022-09-23T05:36:56.911Z,962.6
2022-09-23T05:37:56.903Z,962.66
2022-09-23T05:38:57.067Z,962.62
2022-09-23T05:39:57.035Z,962.64
2022-09-23T05:40:56.921Z,962.66
2022-09-23T05:41:56.924Z,962.69
2022-09-23T05:42:56.918Z,962.64
2022-09-23T05:43:56.921Z,962.69
2022-09-23T05:44:57.071Z,962.7
2022-09-23T05:45:56.927Z,962.72
2022-09-23T05:46:56.995Z,962.74
2022-09-23T05:47:56.943Z,962.73
2022-09-23T05:49:01.329Z,962.77
2022-09-23T05:49:59.844Z,962.79
2022-09-23T05:50:56.951Z,962.76
2022-09-23T05:53:57.011Z,962.75
2022-09-23T05:54:57.050Z,962.79
2022-09-23T05:55:57.039Z,962.77
2022-09-23T05:56:57.692Z,962.79
2022-09-23T05:57:57.231Z,962.8
2022-09-23T05:58:57.035Z,962.81
2022-09-23T05:59:56.953Z,962.82
2022-09-23T06:00:57.066Z,962.83
2022-09-23T06:01:57.090Z,962.89
2022-09-23T06:02:57.160Z,962.84
2022-09-23T06:03:57.109Z,962.88
2022-09-23T06:04:57.048Z,962.9
2022-09-23T06:06:59.251Z,962.94
2022-09-23T06:08:56.988Z,962.98
2022-09-23T06:11:57.114Z,962.96
2022-09-23T06:12:57.074Z,962.97
2022-09-23T06:13:57.172Z,962.94
2022-09-23T06:14:56.996Z,962.97
2022-09-23T06:15:57.029Z,962.95
2022-09-23T06:16:57.179Z,962.94
2022-09-23T06:17:57.019Z,962.95
2022-09-23T06:18:58.856Z,962.96
2022-09-23T06:19:57.155Z,962.93
2022-09-23T06:21:57.107Z,963
2022-09-23T06:22:57.170Z,963.01
2022-09-23T06:23:57.293Z,963
2022-09-23T06:24:57.013Z,962.99
2022-09-23T06:25:57.025Z,963
2022-09-23T06:26:57.138Z,963.02
2022-09-23T06:27:57.053Z,963
2022-09-23T06:28:57.190Z,962.99
2022-09-23T06:29:57.144Z,963.03
2022-09-23T06:31:57.234Z,963.05
2022-09-23T06:32:57.140Z,963.06
2022-09-23T06:34:04.874Z,963.04
2022-09-23T06:35:59.624Z,963.07
2022-09-23T06:36:57.247Z,963.04
2022-09-23T06:37:57.192Z,963.09
2022-09-23T06:38:57.152Z,963.11
2022-09-23T06:39:57.119Z,963.12
2022-09-23T06:40:57.058Z,963.13
2022-09-23T06:41:57.057Z,963.11
2022-09-23T06:42:57.129Z,963.14
2022-09-23T06:43:57.180Z,963.11
2022-09-23T06:45:57.118Z,963.12
2022-09-23T06:46:57.242Z,963.11
2022-09-23T06:47:57.071Z,963.09
2022-09-23T06:48:57.071Z,963.12
2022-09-23T06:49:57.193Z,963.13
2022-09-23T06:50:57.070Z,963.14
2022-09-23T06:51:57.225Z,963.11
2022-09-23T06:52:57.094Z,963.12
2022-09-23T06:53:57.166Z,963.1
2022-09-23T06:54:57.236Z,963.16
2022-09-23T06:55:57.086Z,963.19
2022-09-23T06:56:57.176Z,963.14
2022-09-23T06:57:57.097Z,963.18
2022-09-23T06:59:57.186Z,963.19
2022-09-23T07:00:57.240Z,963.2
2022-09-23T07:02:57.228Z,963.22
2022-09-23T07:03:58.356Z,963.23
2022-09-23T07:04:57.114Z,963.21
2022-09-23T07:05:57.178Z,963.26
2022-09-23T07:06:57.109Z,963.24
2022-09-23T07:07:57.109Z,963.21
2022-09-23T07:08:57.189Z,963.24
2022-09-23T07:10:57.128Z,963.19
2022-09-23T07:11:57.193Z,963.2
2022-09-23T07:12:57.255Z,963.18
2022-09-23T07:13:57.153Z,963.21
2022-09-23T07:14:57.183Z,963.23
2022-09-23T07:15:57.178Z,963.22
2022-09-23T07:16:57.226Z,963.23
2022-09-23T07:17:57.302Z,963.21
2022-09-23T07:18:57.267Z,963.23
2022-09-23T07:19:57.241Z,963.25
2022-09-23T07:20:57.305Z,963.28
2022-09-23T07:21:57.266Z,963.35
2022-09-23T07:22:57.158Z,963.38
2022-09-23T07:23:57.149Z,963.43
2022-09-23T07:24:57.154Z,963.44
2022-09-23T07:25:57.243Z,963.37
2022-09-23T07:26:58.546Z,963.49
2022-09-23T07:28:57.161Z,963.5
2022-09-23T07:29:57.320Z,963.47
2022-09-23T07:31:00.216Z,963.44
2022-09-23T07:32:03.487Z,963.42
2022-09-23T07:33:57.291Z,963.37
2022-09-23T07:34:57.177Z,963.35
2022-09-23T07:35:57.194Z,963.32
2022-09-23T07:36:57.289Z,963.29
2022-09-23T07:37:57.265Z,963.24
2022-09-23T07:38:57.326Z,963.29
2022-09-23T07:39:57.292Z,963.33
2022-09-23T07:40:57.259Z,963.35
2022-09-23T07:41:58.548Z,963.37
2022-09-23T07:42:57.303Z,963.41
2022-09-23T07:43:57.260Z,963.49
2022-09-23T07:44:57.206Z,963.52
2022-09-23T07:45:57.201Z,963.51
2022-09-23T07:47:57.207Z,963.44
2022-09-23T07:48:57.308Z,963.42
2022-09-23T07:49:57.273Z,963.36
2022-09-23T07:50:57.340Z,963.35
2022-09-23T07:51:57.313Z,963.4
2022-09-23T07:52:57.313Z,963.39
2022-09-23T07:53:57.239Z,963.34
2022-09-23T07:55:57.237Z,963.31
2022-09-23T07:56:57.262Z,963.23
2022-09-23T07:57:57.240Z,963.28
2022-09-23T07:58:57.287Z,963.29
2022-09-23T07:59:57.353Z,963.3
2022-09-23T08:00:57.328Z,963.35
2022-09-23T08:01:57.570Z,963.31
2022-09-23T08:02:57.375Z,963.25
2022-09-23T08:03:57.259Z,963.23
2022-09-23T08:04:57.248Z,963.19
2022-09-23T08:05:57.370Z,963.16
2022-09-23T08:06:57.332Z,963.12
2022-09-23T08:07:57.401Z,963.11
2022-09-23T08:08:57.384Z,963.06
2022-09-23T08:09:57.334Z,963.02
2022-09-23T08:11:57.375Z,962.98
2022-09-23T08:13:57.417Z,963
2022-09-23T08:15:57.309Z,962.96
2022-09-23T08:16:57.426Z,963
2022-09-23T08:19:57.310Z,962.98
2022-09-23T08:20:57.381Z,962.97
2022-09-23T08:21:57.376Z,962.96
2022-09-23T08:22:57.316Z,962.95
2022-09-23T08:23:57.295Z,962.94
2022-09-23T08:24:57.350Z,962.92
2022-09-23T08:26:57.395Z,962.93
2022-09-23T08:28:57.331Z,962.88
2022-09-23T08:29:57.319Z,962.89
2022-09-23T08:30:57.368Z,962.87
2022-09-23T08:32:57.467Z,962.89
2022-09-23T08:33:57.421Z,962.91
2022-09-23T08:34:57.443Z,962.92
2022-09-23T08:35:57.332Z,962.83
2022-09-23T08:36:57.325Z,962.93
2022-09-23T08:37:57.441Z,962.87
2022-09-23T08:38:57.413Z,962.91
2022-09-23T08:39:57.487Z,962.9
2022-09-23T08:40:57.349Z,962.87
2022-09-23T08:41:58.903Z,962.94
2022-09-23T08:42:57.350Z,962.98
2022-09-23T08:43:57.356Z,962.94
2022-09-23T08:44:57.429Z,962.96
2022-09-23T08:45:57.536Z,962.9
2022-09-23T08:46:57.453Z,962.93
2022-09-23T08:47:57.362Z,962.88
2022-09-23T08:48:57.364Z,962.95
2022-09-23T08:49:57.362Z,962.97
2022-09-23T08:51:57.505Z,962.98
2022-09-23T08:52:57.463Z,962.99
2022-09-23T08:53:57.430Z,963.05
2022-09-23T08:54:57.505Z,963.04
2022-09-23T08:55:57.778Z,963.05
2022-09-23T08:56:57.430Z,963.06
2022-09-23T08:58:14.310Z,963
2022-09-23T08:58:57.473Z,963.04
2022-09-23T09:00:57.400Z,963.05
2022-09-23T09:02:57.422Z,963.02
2022-09-23T09:03:57.410Z,963.01
2022-09-23T09:04:57.477Z,962.95
2022-09-23T09:05:57.549Z,962.98
2022-09-23T09:07:57.502Z,962.99
2022-09-23T09:08:57.557Z,962.96
2022-09-23T09:09:57.531Z,962.94
2022-09-23T09:11:57.408Z,962.93
2022-09-23T09:12:57.520Z,962.85
2022-09-23T09:13:57.422Z,962.83
2022-09-23T09:14:57.559Z,962.81
2022-09-23T09:15:57.531Z,962.83
2022-09-23T09:16:59.804Z,962.78
2022-09-23T09:17:57.460Z,962.74
2022-09-23T09:18:57.534Z,962.75
2022-09-23T09:19:57.494Z,962.74
2022-09-23T09:20:57.571Z,962.78
2022-09-23T09:21:57.540Z,962.79
2022-09-23T09:24:57.544Z,962.77
2022-09-23T09:25:57.507Z,962.73
2022-09-23T09:26:57.451Z,962.71
2022-09-23T09:27:57.549Z,962.7
2022-09-23T09:29:02.444Z,962.65
2022-09-23T09:29:57.765Z,962.61
2022-09-23T09:30:57.575Z,962.59
2022-09-23T09:31:57.613Z,962.58
2022-09-23T09:32:57.474Z,962.6
2022-09-23T09:33:57.551Z,962.59
2022-09-23T09:35:57.472Z,962.58
2022-09-23T09:36:57.469Z,962.56
2022-09-23T09:37:57.517Z,962.53
2022-09-23T09:39:57.562Z,962.56
2022-09-23T09:41:57.561Z,962.53
2022-09-23T09:42:57.500Z,962.51
2022-09-23T09:43:57.559Z,962.5
2022-09-23T09:44:57.599Z,962.49
2022-09-23T09:45:58.182Z,962.5
2022-09-23T09:46:57.655Z,962.49
2022-09-23T09:47:57.500Z,962.48
2022-09-23T09:48:57.502Z,962.47
2022-09-23T09:49:57.647Z,962.45
2022-09-23T09:50:57.520Z,962.42
2022-09-23T09:51:57.509Z,962.45
2022-09-23T09:52:57.601Z,962.44
2022-09-23T09:53:57.561Z,962.43
2022-09-23T09:54:57.669Z,962.42
2022-09-23T09:56:00.909Z,962.39
2022-09-23T09:57:57.475Z,962.38
2022-09-23T09:58:57.478Z,962.37
2022-09-23T09:59:57.569Z,962.34
2022-09-23T10:00:57.649Z,962.36
2022-09-23T10:01:57.493Z,962.39
2022-09-23T10:03:59.374Z,962.36
2022-09-23T10:05:57.575Z,962.29
2022-09-23T10:06:57.492Z,962.26
2022-09-23T10:07:57.600Z,962.25
2022-09-23T10:10:01.760Z,962.28
2022-09-23T10:10:57.626Z,962.27
2022-09-23T10:11:57.509Z,962.26
2022-09-23T10:12:57.541Z,962.24
2022-09-23T10:14:57.520Z,962.23
2022-09-23T10:15:57.521Z,962.21
2022-09-23T10:16:57.540Z,962.22
2022-09-23T10:17:57.586Z,962.21
2022-09-23T10:18:57.547Z,962.2
2022-09-23T10:19:57.517Z,962.19
2022-09-23T10:20:57.515Z,962.15
2022-09-23T10:22:57.625Z,962.12
2022-09-23T10:24:57.557Z,962.08
2022-09-23T10:25:57.634Z,962.09
2022-09-23T10:26:57.597Z,962.14
2022-09-23T10:27:57.549Z,962.06
2022-09-23T10:28:57.540Z,962.13
2022-09-23T10:29:57.548Z,962.12
2022-09-23T10:30:57.693Z,962.13
2022-09-23T10:31:57.640Z,962.08
2022-09-23T10:32:57.562Z,962.03
2022-09-23T10:33:57.560Z,962.04
2022-09-23T10:34:57.557Z,962
2022-09-23T10:35:57.738Z,961.9
2022-09-23T10:36:57.561Z,961.92
2022-09-23T10:37:57.569Z,961.86
2022-09-23T10:38:57.617Z,961.85
2022-09-23T10:39:57.572Z,961.84
2022-09-23T10:40:57.800Z,961.86
2022-09-23T10:41:57.623Z,961.83
2022-09-23T10:42:57.700Z,961.82
2022-09-23T10:43:57.582Z,961.84
2022-09-23T10:44:57.594Z,961.86
2022-09-23T10:45:57.717Z,961.9
2022-09-23T10:46:57.666Z,961.89
2022-09-23T10:47:57.597Z,961.88
2022-09-23T10:48:57.599Z,961.84
2022-09-23T10:49:57.684Z,961.81
2022-09-23T10:51:57.604Z,961.82
2022-09-23T10:53:57.625Z,961.74
2022-09-23T10:54:57.710Z,961.75
2022-09-23T10:55:57.619Z,961.77
2022-09-23T10:57:58.028Z,961.81
2022-09-23T10:59:57.653Z,961.82
2022-09-23T11:01:57.864Z,961.74
2022-09-23T11:02:57.762Z,961.78
2022-09-23T11:03:57.683Z,961.77
2022-09-23T11:04:57.864Z,961.8
2022-09-23T11:05:57.659Z,961.76
2022-09-23T11:06:57.733Z,961.79
2022-09-23T11:07:57.807Z,961.76
2022-09-23T11:08:57.653Z,961.73
2022-09-23T11:09:57.665Z,961.75
2022-09-23T11:10:57.705Z,961.72
2022-09-23T11:11:57.784Z,961.71
2022-09-23T11:12:57.745Z,961.76
2022-09-23T11:13:57.670Z,961.75
2022-09-23T11:14:57.786Z,961.7
2022-09-23T11:15:57.756Z,961.63
2022-09-23T11:16:57.876Z,961.6
2022-09-23T11:17:57.679Z,961.62
2022-09-23T11:18:57.693Z,961.6
2022-09-23T11:19:57.687Z,961.58
2022-09-23T11:21:57.697Z,961.61
2022-09-23T11:22:57.831Z,961.58
2022-09-23T11:23:57.809Z,961.59
2022-09-23T11:24:57.873Z,961.56
2022-09-23T11:25:57.706Z,961.5
2022-09-23T11:27:57.710Z,961.46
2022-09-23T11:28:57.719Z,961.49
2022-09-23T11:29:57.811Z,961.47
2022-09-23T11:30:57.905Z,961.45
2022-09-23T11:32:57.750Z,961.47
2022-09-23T11:33:57.814Z,961.46
2022-09-23T11:34:57.795Z,961.48
2022-09-23T11:35:57.852Z,961.45
2022-09-23T11:36:57.804Z,961.42
2022-09-23T11:37:57.736Z,961.4
2022-09-23T11:38:57.833Z,961.34
2022-09-23T11:39:57.762Z,961.33
2022-09-23T11:40:57.999Z,961.37
2022-09-23T11:41:57.753Z,961.33
2022-09-23T11:42:57.801Z,961.29
2022-09-23T11:44:57.842Z,961.23
2022-09-23T11:45:57.793Z,961.21
2022-09-23T11:46:57.881Z,961.22
2022-09-23T11:47:57.844Z,961.25
2022-09-23T11:48:57.781Z,961.28
2022-09-23T11:49:57.780Z,961.3
2022-09-23T11:50:57.854Z,961.33
2022-09-23T11:51:57.815Z,961.35
2022-09-23T11:52:57.877Z,961.33
2022-09-23T11:53:57.851Z,961.31
2022-09-23T11:54:57.795Z,961.3
2022-09-23T11:56:57.856Z,961.25
2022-09-23T11:57:57.839Z,961.21
2022-09-23T11:58:59.787Z,961.15
2022-09-23T11:59:57.898Z,961.17
2022-09-23T12:01:00.617Z,961.18
2022-09-23T12:01:58.458Z,961.19
2022-09-23T12:03:03.172Z,961.17
2022-09-23T12:03:59.270Z,961.12
2022-09-23T12:04:58.454Z,961.15
2022-09-23T12:05:57.975Z,961.11
2022-09-23T12:06:57.838Z,961.14
2022-09-23T12:07:57.828Z,961.11
2022-09-23T12:08:57.828Z,961.09
2022-09-23T12:09:58.630Z,961.08
2022-09-23T12:10:57.910Z,961.1
2022-09-23T12:11:57.878Z,961.06
2022-09-23T12:12:57.848Z,961.01
2022-09-23T12:13:57.913Z,960.98
2022-09-23T12:14:57.841Z,960.96
2022-09-23T12:15:57.847Z,960.9
2022-09-23T12:16:57.908Z,960.91
2022-09-23T12:17:59.182Z,960.95
2022-09-23T12:18:57.960Z,960.96
2022-09-23T12:19:57.927Z,961.02
2022-09-23T12:20:57.860Z,960.95
2022-09-23T12:21:57.971Z,961.04
2022-09-23T12:22:57.925Z,960.95
2022-09-23T12:23:57.866Z,960.96
2022-09-23T12:24:57.861Z,960.9
2022-09-23T12:25:58.048Z,960.86
2022-09-23T12:26:57.894Z,960.81
2022-09-23T12:27:57.872Z,960.79
2022-09-23T12:28:57.936Z,960.77
2022-09-23T12:30:40.594Z,960.73
2022-09-23T12:30:57.900Z,960.72
2022-09-23T12:31:57.945Z,960.74
2022-09-23T12:32:57.911Z,960.79
2022-09-23T12:33:57.977Z,960.83
2022-09-23T12:35:57.904Z,960.8
2022-09-23T12:36:57.993Z,960.79
2022-09-23T12:38:57.900Z,960.8
2022-09-23T12:39:58.002Z,960.78
2022-09-23T12:40:58.059Z,960.75
2022-09-23T12:42:57.988Z,960.74
2022-09-23T12:43:57.937Z,960.73
2022-09-23T12:44:58.023Z,960.76
2022-09-23T12:45:58.049Z,960.78
2022-09-23T12:46:57.961Z,960.88
2022-09-23T12:47:58.030Z,960.76
2022-09-23T12:48:58.135Z,960.73
2022-09-23T12:49:57.972Z,960.69
2022-09-23T12:50:58.035Z,960.66
2022-09-23T12:51:58.006Z,960.62
2022-09-23T12:52:57.956Z,960.63
2022-09-23T12:53:58.044Z,960.55
2022-09-23T12:54:57.946Z,960.54
2022-09-23T12:55:57.982Z,960.48
2022-09-23T12:56:58.078Z,960.54
2022-09-23T12:57:58.022Z,960.58
2022-09-23T12:58:58.094Z,960.5
2022-09-23T13:00:58.063Z,960.48
2022-09-23T13:01:58.196Z,960.51
2022-09-23T13:02:58.054Z,960.5
2022-09-23T13:04:57.964Z,960.48
2022-09-23T13:05:57.975Z,960.45
2022-09-23T13:06:57.975Z,960.41
2022-09-23T13:08:57.977Z,960.43
2022-09-23T13:09:58.027Z,960.41
2022-09-23T13:10:58.100Z,960.42
2022-09-23T13:11:57.986Z,960.4
2022-09-23T13:12:58.143Z,960.46
2022-09-23T13:13:57.998Z,960.39
2022-09-23T13:14:58.007Z,960.41
2022-09-23T13:15:58.001Z,960.37
2022-09-23T13:16:58.033Z,960.36
2022-09-23T13:17:58.079Z,960.34
2022-09-23T13:19:58.111Z,960.32
2022-09-23T13:20:58.127Z,960.3
2022-09-23T13:21:58.061Z,960.31
2022-09-23T13:23:58.092Z,960.32
2022-09-23T13:24:58.049Z,960.3
2022-09-23T13:25:58.026Z,960.33
2022-09-23T13:26:58.197Z,960.34
2022-09-23T13:27:58.159Z,960.32
2022-09-23T13:30:58.153Z,960.28
2022-09-23T13:31:58.176Z,960.29
2022-09-23T13:32:58.096Z,960.28
2022-09-23T13:33:58.075Z,960.25
2022-09-23T13:35:58.047Z,960.09
2022-09-23T13:36:58.059Z,960.12
2022-09-23T13:37:58.150Z,960.08
2022-09-23T13:38:58.108Z,960.12
2022-09-23T13:39:58.183Z,960.11
2022-09-23T13:41:58.159Z,960.09
2022-09-23T13:42:58.187Z,960.1
2022-09-23T13:44:58.079Z,960.07
2022-09-23T13:47:58.076Z,960.08
2022-09-23T13:49:58.092Z,960.07
2022-09-23T13:50:58.094Z,960.06
2022-09-23T13:51:58.090Z,960.05
2022-09-23T13:52:58.099Z,960.01
2022-09-23T13:53:58.231Z,960
2022-09-23T13:54:58.199Z,959.96
2022-09-23T13:55:58.107Z,959.95
2022-09-23T13:56:58.160Z,959.94
2022-09-23T13:57:58.204Z,959.95
2022-09-23T13:59:58.113Z,959.92
2022-09-23T14:00:58.251Z,959.9
2022-09-23T14:01:58.291Z,959.84
2022-09-23T14:02:58.250Z,959.81
2022-09-23T14:03:58.129Z,959.8
2022-09-23T14:04:58.135Z,959.72
2022-09-23T14:05:58.248Z,959.75
2022-09-23T14:06:58.134Z,959.74
2022-09-23T14:08:58.148Z,959.77
2022-09-23T14:09:58.215Z,959.79
2022-09-23T14:10:58.291Z,959.78
2022-09-23T14:11:58.261Z,959.81
2022-09-23T14:12:58.225Z,959.8
2022-09-23T14:13:58.300Z,959.77
2022-09-23T14:14:58.268Z,959.79
2022-09-23T14:15:58.338Z,959.73
2022-09-23T14:16:58.229Z,959.71
2022-09-23T14:17:58.159Z,959.72
2022-09-23T14:18:58.238Z,959.68
2022-09-23T14:19:58.361Z,959.62
2022-09-23T14:20:58.284Z,959.58
2022-09-23T14:21:58.244Z,959.59
2022-09-23T14:24:58.197Z,959.51
2022-09-23T14:25:58.189Z,959.53
2022-09-23T14:26:58.281Z,959.58
2022-09-23T14:28:58.191Z,959.64
2022-09-23T14:29:58.286Z,959.62
2022-09-23T14:30:58.191Z,959.65
2022-09-23T14:31:58.253Z,959.64
2022-09-23T14:32:58.298Z,959.58
2022-09-23T14:33:58.255Z,959.63
2022-09-23T14:34:58.335Z,959.57
2022-09-23T14:35:58.409Z,959.61
2022-09-23T14:36:58.290Z,959.54
2022-09-23T14:37:58.231Z,959.58
2022-09-23T14:38:58.317Z,959.56
2022-09-23T14:39:58.219Z,959.57
2022-09-23T14:40:58.266Z,959.58
2022-09-23T14:41:58.303Z,959.53
2022-09-23T14:42:58.225Z,959.47
2022-09-23T14:43:58.248Z,959.43